createdAt,value
2018-12-12T00:02:16.330Z,101824.09
2018-12-12T00:04:43.775Z,101822.72
2018-12-12T00:07:11.517Z,101821.00
2018-12-12T00:09:38.966Z,101822.29
2018-12-12T00:12:06.413Z,101821.43
2018-12-12T00:14:33.830Z,101824.86
2018-12-12T00:17:01.297Z,101827.39
2018-12-12T00:19:29.508Z,101821.76
2018-12-12T00:21:56.957Z,101823.11
2018-12-12T00:24:24.424Z,101818.77
2018-12-12T00:26:51.847Z,101815.72
2018-12-12T00:29:19.523Z,101815.28
2018-12-12T00:31:51.134Z,101805.31
2018-12-12T00:34:18.947Z,101806.09
2018-12-12T00:36:46.415Z,101798.30
2018-12-12T00:39:13.900Z,101802.19
2018-12-12T00:41:41.457Z,101797.84
2018-12-12T00:44:08.910Z,101785.70
2018-12-12T00:46:36.657Z,101792.23
2018-12-12T00:49:04.275Z,101796.57
2018-12-12T00:51:32.079Z,101806.91
2018-12-12T00:53:59.542Z,101802.53
2018-12-12T00:56:26.974Z,101804.66
2018-12-12T00:58:54.537Z,101807.69
2018-12-12T01:01:21.967Z,101815.45
2018-12-12T01:03:49.421Z,101815.45
2018-12-12T01:06:16.930Z,101810.22
2018-12-12T01:08:44.445Z,101813.64
2018-12-12T01:11:17.831Z,101813.59
2018-12-12T01:13:45.285Z,101815.72
2018-12-12T01:16:12.718Z,101816.56
2018-12-12T01:18:40.162Z,101822.63
2018-12-12T01:21:07.606Z,101822.17
2018-12-12T01:23:35.089Z,101823.01
2018-12-12T01:26:02.499Z,101829.95
2018-12-12T01:28:29.948Z,101830.91
2018-12-12T01:30:57.409Z,101828.32
2018-12-12T01:33:24.977Z,101833.58
2018-12-12T01:35:52.434Z,101837.08
2018-12-12T01:38:19.886Z,101830.66
2018-12-12T01:40:47.328Z,101840.58
2018-12-12T01:43:14.737Z,101852.69
2018-12-12T01:45:42.184Z,101854.88
2018-12-12T01:48:09.616Z,101853.59
2018-12-12T01:50:37.062Z,101862.73
2018-12-12T01:55:38.389Z,101859.81
2018-12-12T01:58:05.894Z,101858.08
2018-12-12T02:00:33.425Z,101856.39
2018-12-12T02:03:00.826Z,101852.50
2018-12-12T02:05:28.276Z,101856.01
2018-12-12T02:07:55.873Z,101851.27
2018-12-12T02:10:23.929Z,101849.59
2018-12-12T02:13:03.133Z,101851.36
2018-12-12T02:15:30.561Z,101851.88
2018-12-12T02:17:58.104Z,101853.69
2018-12-12T02:20:25.523Z,101848.96
2018-12-12T02:22:52.965Z,101845.08
2018-12-12T02:25:25.523Z,101846.83
2018-12-12T02:27:53.039Z,101842.43
2018-12-12T02:30:20.476Z,101839.82
2018-12-12T02:32:47.920Z,101834.64
2018-12-12T02:35:15.338Z,101840.68
2018-12-12T02:37:42.797Z,101834.20
2018-12-12T02:40:10.494Z,101840.30
2018-12-12T02:42:37.941Z,101829.94
2018-12-12T02:45:05.434Z,101831.80
2018-12-12T02:47:32.877Z,101838.75
2018-12-12T02:50:00.377Z,101839.70
2018-12-12T02:52:30.343Z,101842.31
2018-12-12T02:54:57.804Z,101842.77
2018-12-12T02:57:25.580Z,101848.45
2018-12-12T02:59:53.106Z,101858.03
2018-12-12T03:02:20.531Z,101847.22
2018-12-12T03:04:48.166Z,101850.59
2018-12-12T03:07:15.593Z,101854.88
2018-12-12T03:09:43.055Z,101861.03
2018-12-12T03:12:10.490Z,101859.79
2018-12-12T03:14:37.914Z,101859.41
2018-12-12T03:17:05.364Z,101861.21
2018-12-12T03:19:32.857Z,101858.64
2018-12-12T03:22:00.284Z,101856.94
2018-12-12T03:24:27.981Z,101851.81
2018-12-12T03:26:55.612Z,101847.56
2018-12-12T03:29:23.046Z,101844.14
2018-12-12T03:31:50.483Z,101838.09
2018-12-12T03:34:17.906Z,101842.82
2018-12-12T03:36:45.370Z,101842.82
2018-12-12T03:39:12.890Z,101845.87
2018-12-12T03:41:40.423Z,101843.28
2018-12-12T03:44:07.850Z,101840.30
2018-12-12T03:46:35.450Z,101844.23
2018-12-12T03:49:02.900Z,101842.52
2018-12-12T03:51:30.354Z,101843.47
2018-12-12T03:53:57.763Z,101845.66
2018-12-12T03:56:25.194Z,101848.20
2018-12-12T03:58:52.632Z,101848.97
2018-12-12T04:01:20.067Z,101851.50
2018-12-12T04:03:47.496Z,101847.29
2018-12-12T04:06:14.923Z,101844.72
2018-12-12T04:08:42.368Z,101840.02
2018-12-12T04:11:09.788Z,101844.39
2018-12-12T04:13:37.213Z,101842.23
2018-12-12T04:16:04.743Z,101842.23
2018-12-12T04:18:32.492Z,101846.58
2018-12-12T04:20:59.898Z,101855.20
2018-12-12T04:23:27.345Z,101853.97
2018-12-12T04:25:54.874Z,101845.09
2018-12-12T04:28:22.334Z,101850.16
2018-12-12T04:30:49.754Z,101854.88
2018-12-12T04:33:17.178Z,101848.86
2018-12-12T04:35:44.620Z,101851.38
2018-12-12T04:38:12.075Z,101857.45
2018-12-12T04:40:39.479Z,101850.52
2018-12-12T04:43:06.971Z,101845.80
2018-12-12T04:45:34.409Z,101841.92
2018-12-12T04:48:02.017Z,101845.92
2018-12-12T04:50:29.610Z,101854.50
2018-12-12T04:52:57.142Z,101849.81
2018-12-12T04:55:24.576Z,101852.42
2018-12-12T04:57:51.997Z,101852.42
2018-12-12T05:00:19.440Z,101855.84
2018-12-12T05:02:47.466Z,101857.53
2018-12-12T05:05:14.926Z,101857.58
2018-12-12T05:07:42.356Z,101856.36
2018-12-12T05:10:09.816Z,101855.91
2018-12-12T05:12:37.243Z,101857.86
2018-12-12T05:15:05.089Z,101850.28
2018-12-12T05:17:32.548Z,101855.91
2018-12-12T05:20:00.176Z,101852.09
2018-12-12T05:22:27.615Z,101859.53
2018-12-12T05:24:55.061Z,101863.04
2018-12-12T05:27:22.476Z,101855.31
2018-12-12T05:29:49.916Z,101856.62
2018-12-12T05:32:17.358Z,101863.11
2018-12-12T05:37:18.641Z,101856.62
2018-12-12T05:39:46.112Z,101860.98
2018-12-12T05:42:13.567Z,101858.88
2018-12-12T05:44:41.017Z,101861.94
2018-12-12T05:47:08.455Z,101861.54
2018-12-12T05:49:35.874Z,101858.39
2018-12-12T06:10:10.908Z,101873.45
2018-12-12T06:12:38.395Z,101879.12
2018-12-12T06:15:07.274Z,101872.75
2018-12-12T06:17:35.039Z,101876.63
2018-12-12T06:20:02.835Z,101881.00
2018-12-12T06:22:30.590Z,101873.27
2018-12-12T06:24:58.000Z,101876.76
2018-12-12T06:27:25.465Z,101876.25
2018-12-12T06:29:52.930Z,101881.05
2018-12-12T06:32:20.426Z,101879.24
2018-12-12T06:34:47.854Z,101877.95
2018-12-12T06:37:15.300Z,101884.08
2018-12-12T06:39:42.747Z,101888.30
2018-12-12T06:42:10.166Z,101890.68
2018-12-12T06:44:37.953Z,101889.98
2018-12-12T06:47:05.380Z,101896.08
2018-12-12T06:49:37.774Z,101893.09
2018-12-12T06:52:05.325Z,101892.62
2018-12-12T06:54:32.782Z,101890.49
2018-12-12T06:57:00.309Z,101892.62
2018-12-12T06:59:27.849Z,101893.73
2018-12-12T07:01:55.426Z,101898.09
2018-12-12T07:04:22.874Z,101894.07
2018-12-12T07:06:50.319Z,101902.67
2018-12-12T07:09:17.750Z,101897.14
2018-12-12T07:11:50.656Z,101904.71
2018-12-12T07:14:18.148Z,101898.91
2018-12-12T07:16:45.608Z,101900.38
2018-12-12T07:19:13.063Z,101898.56
2018-12-12T07:21:40.514Z,101904.34
2018-12-12T07:24:08.074Z,101902.28
2018-12-12T07:26:35.512Z,101903.14
2018-12-12T07:29:03.006Z,101906.08
2018-12-12T07:31:30.458Z,101909.95
2018-12-12T07:34:00.873Z,101914.06
2018-12-12T07:36:27.523Z,101915.04
2018-12-12T07:38:54.963Z,101922.44
2018-12-12T07:41:22.613Z,101920.71
2018-12-12T07:43:50.283Z,101924.97
2018-12-12T07:46:19.053Z,101931.58
2018-12-12T07:48:46.476Z,101931.30
2018-12-12T07:51:13.930Z,101931.89
2018-12-12T07:53:41.682Z,101929.59
2018-12-12T07:56:09.116Z,101938.81
2018-12-12T07:58:36.541Z,101939.57
2018-12-12T08:01:03.998Z,101937.50
2018-12-12T08:03:31.425Z,101944.56
2018-12-12T08:05:58.859Z,101941.20
2018-12-12T08:08:26.333Z,101945.63
2018-12-12T08:10:53.756Z,101950.05
2018-12-12T08:13:21.208Z,101951.80
2018-12-12T08:15:48.735Z,101950.56
2018-12-12T08:18:16.195Z,101945.77
2018-12-12T08:20:43.627Z,101951.92
2018-12-12T08:23:11.337Z,101945.06
2018-12-12T08:25:39.165Z,101944.82
2018-12-12T08:28:06.625Z,101954.73
2018-12-12T08:30:34.051Z,101952.84
2018-12-12T08:33:01.494Z,101955.69
2018-12-12T08:35:28.924Z,101954.12
2018-12-12T08:37:56.466Z,101953.81
2018-12-12T08:40:23.902Z,101952.67
2018-12-12T08:42:51.350Z,101955.09
2018-12-12T08:45:20.575Z,101953.02
2018-12-12T08:47:48.014Z,101952.70
2018-12-12T08:50:15.467Z,101961.00
2018-12-12T08:52:43.054Z,101959.95
2018-12-12T08:55:10.659Z,101958.20
2018-12-12T08:57:38.162Z,101957.50
2018-12-12T09:00:06.053Z,101956.20
2018-12-12T09:02:33.473Z,101961.52
2018-12-12T09:05:01.003Z,101973.39
2018-12-12T09:07:28.431Z,101963.48
2018-12-12T09:09:55.880Z,101962.26
2018-12-12T09:12:26.877Z,101962.23
2018-12-12T09:14:54.405Z,101964.91
2018-12-12T09:17:21.937Z,101969.78
2018-12-12T09:19:49.375Z,101975.09
2018-12-12T09:22:16.798Z,101972.16
2018-12-12T09:24:44.328Z,101974.75
2018-12-12T09:27:11.742Z,101970.73
2018-12-12T09:29:39.208Z,101974.19
2018-12-12T09:32:06.618Z,101972.87
2018-12-12T09:34:34.099Z,101977.11
2018-12-12T09:37:01.537Z,101976.57
2018-12-12T09:39:28.975Z,101976.24
2018-12-12T09:41:56.482Z,101975.16
2018-12-12T09:44:24.384Z,101972.25
2018-12-12T09:46:51.842Z,101978.97
2018-12-12T09:49:19.279Z,101980.36
2018-12-12T09:51:46.725Z,101981.77
2018-12-12T09:54:14.148Z,101985.22
2018-12-12T09:56:41.593Z,101983.13
2018-12-12T09:59:09.098Z,101978.47
2018-12-12T10:01:36.560Z,101980.23
2018-12-12T10:04:04.080Z,101977.73
2018-12-12T10:06:31.514Z,101976.13
2018-12-12T10:08:58.942Z,101973.69
2018-12-12T10:11:26.370Z,101974.20
2018-12-12T10:13:53.980Z,101978.42
2018-12-12T10:16:21.433Z,101981.52
2018-12-12T10:18:48.867Z,101974.21
2018-12-12T10:21:16.317Z,101975.13
2018-12-12T10:23:43.741Z,101974.33
2018-12-12T10:26:11.169Z,101972.63
2018-12-12T10:28:38.623Z,101971.79
2018-12-12T10:31:06.058Z,101975.34
2018-12-12T10:33:37.655Z,101965.44
2018-12-12T10:36:02.952Z,101965.53
2018-12-12T10:38:30.391Z,101964.30
2018-12-12T10:40:57.802Z,101964.71
2018-12-12T10:43:25.262Z,101963.85
2018-12-12T10:45:55.363Z,101956.02
2018-12-12T10:48:22.833Z,101959.50
2018-12-12T10:50:50.261Z,101953.35
2018-12-12T10:53:17.863Z,101948.55
2018-12-12T10:55:45.304Z,101949.02
2018-12-12T10:58:12.738Z,101948.23
2018-12-12T11:00:40.160Z,101945.18
2018-12-12T11:03:13.105Z,101944.86
2018-12-12T11:05:40.559Z,101943.72
2018-12-12T11:08:07.970Z,101941.29
2018-12-12T11:10:35.890Z,101944.02
2018-12-12T11:13:03.317Z,101940.28
2018-12-12T11:15:30.770Z,101929.00
2018-12-12T11:17:58.193Z,101938.13
2018-12-12T11:20:25.624Z,101934.92
2018-12-12T11:22:53.044Z,101930.98
2018-12-12T11:25:20.504Z,101928.94
2018-12-12T11:27:47.934Z,101926.45
2018-12-12T11:30:15.403Z,101927.64
2018-12-12T11:32:42.917Z,101925.39
2018-12-12T11:35:10.433Z,101926.80
2018-12-12T11:37:37.939Z,101924.70
2018-12-12T11:40:06.247Z,101925.56
2018-12-12T11:42:33.713Z,101920.80
2018-12-12T11:45:01.269Z,101916.02
2018-12-12T11:47:28.803Z,101916.91
2018-12-12T11:49:56.223Z,101913.14
2018-12-12T11:52:23.676Z,101908.94
2018-12-12T11:54:51.470Z,101902.46
2018-12-12T11:57:19.195Z,101906.36
2018-12-12T11:59:46.625Z,101905.52
2018-12-12T12:02:14.074Z,101902.52
2018-12-12T12:04:41.519Z,101897.78
2018-12-12T12:07:08.939Z,101895.63
2018-12-12T12:09:36.376Z,101893.88
2018-12-12T12:12:03.830Z,101893.02
2018-12-12T12:14:31.376Z,101895.13
2018-12-12T12:16:59.023Z,101892.52
2018-12-12T12:19:26.451Z,101893.88
2018-12-12T12:21:54.232Z,101883.98
2018-12-12T12:24:21.669Z,101882.24
2018-12-12T12:26:49.990Z,101884.04
2018-12-12T12:29:17.626Z,101884.98
2018-12-12T12:31:45.145Z,101891.09
2018-12-12T12:34:12.575Z,101882.85
2018-12-12T12:36:40.015Z,101880.70
2018-12-12T12:39:07.464Z,101874.26
2018-12-12T12:41:34.896Z,101875.11
2018-12-12T12:44:02.317Z,101872.55
2018-12-12T12:46:31.570Z,101869.20
2018-12-12T12:48:58.990Z,101874.51
2018-12-12T12:51:26.418Z,101875.00
2018-12-12T12:53:53.835Z,101864.22
2018-12-12T12:56:21.306Z,101859.56
2018-12-12T12:58:48.724Z,101860.47
2018-12-12T13:01:16.167Z,101856.21
2018-12-12T13:03:43.605Z,101861.45
2018-12-12T13:06:11.060Z,101852.52
2018-12-12T13:08:38.486Z,101851.13
2018-12-12T13:11:05.933Z,101844.22
2018-12-12T13:13:33.430Z,101843.39
2018-12-12T13:16:01.000Z,101854.72
2018-12-12T13:18:28.403Z,101843.02
2018-12-12T13:20:55.856Z,101845.58
2018-12-12T13:23:23.302Z,101836.93
2018-12-12T13:25:50.788Z,101834.78
2018-12-12T13:28:18.206Z,101833.98
2018-12-12T13:30:45.645Z,101835.28
2018-12-12T13:33:13.059Z,101829.69
2018-12-12T13:35:40.526Z,101831.88
2018-12-12T13:38:08.046Z,101831.02
2018-12-12T13:40:35.484Z,101818.39
2018-12-12T13:43:03.169Z,101823.59
2018-12-12T13:45:31.390Z,101819.20
2018-12-12T13:47:58.816Z,101818.30
2018-12-12T13:50:28.210Z,101820.39
2018-12-12T13:52:55.684Z,101817.25
2018-12-12T13:55:24.563Z,101816.80
2018-12-12T13:57:52.311Z,101813.76
2018-12-12T14:00:20.990Z,101817.16
2018-12-12T14:02:48.395Z,101807.66
2018-12-12T14:05:15.851Z,101812.01
2018-12-12T14:07:43.276Z,101815.86
2018-12-12T14:10:10.725Z,101807.57
2018-12-12T14:12:38.199Z,101817.00
2018-12-12T14:15:06.107Z,101811.77
2018-12-12T14:17:33.532Z,101812.57
2018-12-12T14:20:00.974Z,101810.82
2018-12-12T14:22:28.467Z,101815.56
2018-12-12T14:24:55.926Z,101811.61
2018-12-12T14:27:23.359Z,101811.12
2018-12-12T14:29:50.804Z,101813.31
2018-12-12T14:32:18.486Z,101810.27
2018-12-12T14:34:45.957Z,101798.48
2018-12-12T14:37:13.375Z,101802.48
2018-12-12T14:39:40.825Z,101803.42
2018-12-12T14:42:08.251Z,101802.94
2018-12-12T14:44:35.727Z,101802.83
2018-12-12T14:47:03.364Z,101803.68
2018-12-12T14:49:33.759Z,101805.88
2018-12-12T14:52:03.249Z,101803.68
2018-12-12T14:54:30.686Z,101800.58
2018-12-12T14:56:58.144Z,101800.07
2018-12-12T14:59:25.603Z,101805.27
2018-12-12T15:01:53.123Z,101804.38
2018-12-12T15:04:23.397Z,101796.63
2018-12-12T15:06:51.017Z,101802.68
2018-12-12T15:09:18.532Z,101800.53
2018-12-12T15:11:46.229Z,101806.52
2018-12-12T15:14:13.667Z,101803.02
2018-12-12T15:16:49.945Z,101798.22
2018-12-12T15:19:22.256Z,101793.44
2018-12-12T15:21:49.894Z,101796.92
2018-12-12T15:24:17.327Z,101793.03
2018-12-12T15:26:44.791Z,101793.44
2018-12-12T15:29:12.265Z,101792.14
2018-12-12T15:34:51.729Z,101795.63
2018-12-12T15:37:19.262Z,101790.44
2018-12-12T15:39:46.707Z,101794.69
2018-12-12T15:42:14.189Z,101792.43
2018-12-12T15:44:41.626Z,101796.73
2018-12-12T15:47:09.034Z,101801.92
2018-12-12T15:49:36.594Z,101797.13
2018-12-12T15:52:15.813Z,101795.38
2018-12-12T15:54:48.086Z,101791.48
2018-12-12T15:57:15.521Z,101797.02
2018-12-12T15:59:42.960Z,101799.56
2018-12-12T16:02:10.397Z,101795.55
2018-12-12T16:04:37.929Z,101796.75
2018-12-12T16:07:05.359Z,101807.52
2018-12-12T16:09:32.813Z,101805.78
2018-12-12T16:12:00.246Z,101810.06
2018-12-12T16:14:27.659Z,101811.41
2018-12-12T16:16:55.186Z,101807.02
2018-12-12T16:19:22.610Z,101805.28
2018-12-12T16:21:53.205Z,101805.73
2018-12-12T16:24:20.632Z,101808.83
2018-12-12T16:26:48.234Z,101810.52
2018-12-12T16:29:15.643Z,101811.86
2018-12-12T16:31:45.728Z,101814.92
2018-12-12T16:34:13.162Z,101813.17
2018-12-12T16:36:40.626Z,101816.22
2018-12-12T16:39:08.202Z,101814.91
2018-12-12T16:41:37.468Z,101814.75
2018-12-12T16:44:04.905Z,101811.25
2018-12-12T16:46:33.271Z,101813.05
2018-12-12T16:49:03.632Z,101815.14
2018-12-12T16:51:31.103Z,101821.57
2018-12-12T16:53:58.666Z,101821.98
2018-12-12T16:56:26.451Z,101824.05
2018-12-12T16:58:54.014Z,101829.05
2018-12-12T17:01:21.439Z,101828.14
2018-12-12T17:03:50.833Z,101833.39
2018-12-12T17:06:22.107Z,101832.53
2018-12-12T17:08:49.542Z,101832.88
2018-12-12T17:11:20.929Z,101832.47
2018-12-12T17:13:49.430Z,101826.28
2018-12-12T17:16:21.832Z,101827.06
2018-12-12T17:18:49.439Z,101826.48
2018-12-12T17:21:17.201Z,101823.33
2018-12-12T17:23:44.735Z,101818.92
2018-12-12T17:26:12.204Z,101821.84
2018-12-12T17:28:39.687Z,101826.92
2018-12-12T17:33:42.015Z,101829.34
2018-12-12T17:36:10.007Z,101824.02
2018-12-12T17:38:37.507Z,101823.44
2018-12-12T17:41:09.563Z,101818.52
2018-12-12T17:43:36.999Z,101818.45
2018-12-12T17:46:07.472Z,101811.85
2018-12-12T17:48:35.062Z,101813.48
2018-12-12T17:53:51.165Z,101818.13
2018-12-12T17:56:18.593Z,101816.66
2018-12-12T18:01:23.457Z,101813.81
2018-12-12T18:03:50.883Z,101815.09
2018-12-12T18:06:18.346Z,101816.73
2018-12-12T18:08:45.773Z,101813.62
2018-12-12T18:11:13.240Z,101811.79
2018-12-12T18:13:44.701Z,101815.63
2018-12-12T18:16:12.148Z,101812.52
2018-12-12T18:18:39.724Z,101815.55
2018-12-12T18:21:07.197Z,101818.92
2018-12-12T18:23:38.719Z,101816.30
2018-12-12T18:26:06.391Z,101814.88
2018-12-12T18:28:33.856Z,101815.16
2018-12-12T18:31:01.643Z,101814.75
2018-12-12T18:33:35.431Z,101815.59
2018-12-12T18:36:03.037Z,101813.37
2018-12-12T18:38:30.703Z,101814.62
2018-12-12T18:41:00.140Z,101816.75
2018-12-12T18:43:27.572Z,101815.38
2018-12-12T18:45:55.180Z,101814.42
2018-12-12T18:48:22.817Z,101813.00
2018-12-12T18:55:02.216Z,101804.67
2018-12-12T18:57:29.796Z,101809.85
2018-12-12T18:59:57.267Z,101811.55
2018-12-12T19:05:01.417Z,101812.78
2018-12-12T19:07:29.214Z,101814.05
2018-12-12T19:09:56.680Z,101808.36
2018-12-12T19:12:31.153Z,101815.73
2018-12-12T19:15:01.144Z,101807.45
2018-12-12T19:17:28.840Z,101811.70
2018-12-12T19:19:56.323Z,101810.36
2018-12-12T19:22:23.838Z,101809.90
2018-12-12T19:24:51.370Z,101811.57
2018-12-12T19:27:19.258Z,101807.63
2018-12-12T19:29:48.809Z,101800.30
2018-12-12T19:32:16.633Z,101803.23
2018-12-12T19:34:51.014Z,101805.36
2018-12-12T19:37:33.133Z,101808.30
2018-12-12T19:40:00.581Z,101802.55
2018-12-12T19:42:32.070Z,101808.50
2018-12-12T19:44:59.756Z,101805.38
2018-12-12T19:47:27.280Z,101807.88
2018-12-12T19:49:54.836Z,101810.72
2018-12-12T19:55:16.450Z,101807.13
2018-12-12T19:57:49.747Z,101804.16
2018-12-12T20:00:17.298Z,101802.86
2018-12-12T20:02:48.796Z,101800.67
2018-12-12T20:05:16.311Z,101803.63
2018-12-12T20:07:43.779Z,101800.13
2018-12-12T20:10:11.340Z,101800.53
2018-12-12T20:12:47.482Z,101797.08
2018-12-12T20:15:23.039Z,101797.39
2018-12-12T20:17:50.504Z,101799.52
2018-12-12T20:20:20.898Z,101791.25
2018-12-12T20:22:50.431Z,101790.27
2018-12-12T20:25:17.889Z,101791.99
2018-12-12T20:27:45.334Z,101788.06
2018-12-12T20:30:12.738Z,101789.72
2018-12-12T20:32:45.095Z,101784.86
2018-12-12T20:35:12.760Z,101784.72
2018-12-12T20:37:40.356Z,101795.06
2018-12-12T20:40:08.290Z,101798.47
2018-12-12T20:42:35.732Z,101804.02
2018-12-12T20:45:03.513Z,101808.66
2018-12-12T20:47:30.970Z,101812.14
2018-12-12T20:50:04.116Z,101801.66
2018-12-12T20:52:31.601Z,101806.36
2018-12-12T20:55:03.067Z,101806.77
2018-12-12T20:57:30.540Z,101814.52
2018-12-12T20:59:58.881Z,101813.66
2018-12-12T21:02:26.448Z,101818.37
2018-12-12T21:04:53.925Z,101809.72
2018-12-12T21:07:21.390Z,101811.02
2018-12-12T21:09:48.896Z,101810.61
2018-12-12T21:12:16.515Z,101812.70
2018-12-12T21:14:43.957Z,101809.66
2018-12-12T21:17:11.479Z,101804.95
2018-12-12T21:19:39.085Z,101794.36
2018-12-12T21:22:06.523Z,101795.43
2018-12-12T21:24:38.879Z,101799.14
2018-12-12T21:27:06.665Z,101794.14
2018-12-12T21:29:34.203Z,101796.56
2018-12-12T21:32:01.642Z,101793.69
2018-12-12T21:34:29.123Z,101790.78
2018-12-12T21:36:56.778Z,101783.56
2018-12-12T21:39:24.262Z,101777.67
2018-12-12T21:41:56.559Z,101772.53
2018-12-12T21:44:24.021Z,101770.45
2018-12-12T21:46:51.459Z,101773.10
2018-12-12T21:49:19.044Z,101771.43
2018-12-12T21:51:46.643Z,101765.05
2018-12-12T21:54:14.078Z,101764.78
2018-12-12T21:56:41.538Z,101761.38
2018-12-12T21:59:09.093Z,101764.94
2018-12-12T22:01:36.525Z,101764.18
2018-12-12T22:04:10.132Z,101770.77
2018-12-12T22:06:37.651Z,101769.09
2018-12-12T22:09:07.662Z,101767.88
2018-12-12T22:11:35.211Z,101762.23
2018-12-12T22:14:02.674Z,101761.48
2018-12-12T22:16:30.321Z,101758.09
2018-12-12T22:18:57.782Z,101759.00
2018-12-12T22:21:25.562Z,101749.13
2018-12-12T22:23:57.138Z,101746.99
2018-12-12T22:26:30.411Z,101751.31
2018-12-12T22:29:05.618Z,101751.77
2018-12-12T22:31:33.109Z,101745.37
2018-12-12T22:34:00.656Z,101748.42
2018-12-12T22:36:28.268Z,101746.27
2018-12-12T22:38:55.738Z,101744.97
2018-12-12T22:41:23.188Z,101746.28
2018-12-12T22:43:50.640Z,101740.76
2018-12-12T22:46:18.151Z,101737.41
2018-12-12T22:48:45.711Z,101732.23
2018-12-12T22:51:13.268Z,101732.28
2018-12-12T22:53:40.722Z,101732.28
2018-12-12T22:56:27.716Z,101732.28
2018-12-12T23:01:28.048Z,101724.06
2018-12-12T23:04:01.501Z,101726.65
2018-12-12T23:06:28.922Z,101730.53
2018-12-12T23:08:57.599Z,101729.26
2018-12-12T23:11:25.464Z,101732.30
2018-12-12T23:13:53.047Z,101726.67
2018-12-12T23:16:25.690Z,101726.67
2018-12-12T23:18:53.280Z,101725.05
2018-12-12T23:21:20.767Z,101716.03
2018-12-12T23:23:48.193Z,101715.66
2018-12-12T23:26:15.608Z,101709.63
2018-12-12T23:28:43.900Z,101707.05
2018-12-12T23:31:11.331Z,101694.11
2018-12-12T23:33:38.750Z,101690.55
2018-12-12T23:36:10.278Z,101688.67
2018-12-12T23:38:45.549Z,101689.39
2018-12-12T23:41:12.991Z,101680.64
2018-12-12T23:43:40.414Z,101687.00
2018-12-12T23:46:07.864Z,101685.25
2018-12-12T23:48:35.312Z,101688.30
2018-12-12T23:51:07.604Z,101685.11
2018-12-12T23:53:35.117Z,101684.07
2018-12-12T23:56:02.558Z,101684.73
2018-12-12T23:58:34.012Z,101683.28
